Time;durP1;ratioP1;P1;durP2;ratioP2;P2;SDS_P1;SDS_P2;PMS_P1;PMS_P2;Temp;Humidity;BMP_temperature;BMP_pressure;BME280_temperature;BME280_humidity;BME280_pressure;Samples;Min_cycle;Max_cycle;Signal;HPM_P1;HPM_P2
2022/09/03 00:04:16;;;;;;;6.15;5.65;;;;;;;;;;10026234;28;20092;-70
2022/09/03 00:09:25;;;;;;;5.95;5.45;;;;;;;;;;10066921;28;20039;-71
2022/09/03 00:14:27;;;;;;;6.30;5.70;;;;;;;;;;10063791;28;20134;-71
2022/09/03 00:19:27;;;;;;;6.20;5.70;;;;;;;;;;10069997;28;20439;-70
2022/09/03 00:24:26;;;;;;;5.88;5.38;;;;;;;;;;10060995;28;20528;-71
2022/09/03 00:29:24;;;;;;;5.88;5.45;;;;;;;;;;10090331;28;20126;-71
2022/09/03 00:34:24;;;;;;;6.10;5.60;;;;;;;;;;10077263;28;20455;-71
2022/09/03 00:39:21;;;;;;;5.90;5.40;;;;;;;;;;10071700;28;20573;-71
2022/09/03 00:44:25;;;;;;;5.55;5.15;;;;;;;;;;10077502;28;20054;-71
2022/09/03 00:49:38;;;;;;;6.10;5.50;;;;;;;;;;10063858;28;20666;-71
2022/09/03 00:54:34;;;;;;;6.05;5.65;;;;;;;;;;10068996;28;20075;-71
2022/09/03 00:59:40;;;;;;;6.25;4.80;;;;;;;;;;10059707;28;20052;-71
2022/09/03 01:04:59;;;;;;;5.75;5.35;;;;;;;;;;10079458;28;20094;-70
2022/09/03 01:10:07;;;;;;;5.28;4.88;;;;;;;;;;10060844;28;20580;-70
2022/09/03 01:15:08;;;;;;;8.02;5.70;;;;;;;;;;10026318;28;20132;-71
2022/09/03 01:20:23;;;;;;;6.07;5.57;;;;;;;;;;10028155;28;20083;-71
2022/09/03 01:25:38;;;;;;;6.00;5.40;;;;;;;;;;10035126;28;20174;-71
2022/09/03 01:30:38;;;;;;;5.60;5.10;;;;;;;;;;10076698;28;20054;-71
2022/09/03 01:35:49;;;;;;;6.03;5.53;;;;;;;;;;10053173;28;20070;-71
2022/09/03 01:42:12;;;;;;;6.20;5.70;;;;;;;;;;10058198;28;20085;-71
2022/09/03 01:46:39;;;;;;;6.10;5.60;;;;;;;;;;10041781;28;20143;-71
2022/09/03 01:51:35;;;;;;;6.22;5.70;;;;;;;;;;10059029;28;20485;-71
2022/09/03 01:56:33;;;;;;;6.03;5.53;;;;;;;;;;10053936;28;20070;-71
2022/09/03 02:01:33;;;;;;;5.88;5.38;;;;;;;;;;10078374;28;20584;-71
2022/09/03 02:06:30;;;;;;;6.05;5.55;;;;;;;;;;10093014;28;20039;-71
2022/09/03 02:11:27;;;;;;;5.93;5.43;;;;;;;;;;10066878;28;20050;-71
2022/09/03 02:16:25;;;;;;;6.00;5.50;;;;;;;;;;10080024;28;20094;-71
2022/09/03 02:21:23;;;;;;;6.03;5.45;;;;;;;;;;10063995;28;20126;-71
2022/09/03 02:26:23;;;;;;;5.93;5.43;;;;;;;;;;10070054;28;20576;-71
2022/09/03 02:31:19;;;;;;;5.80;5.40;;;;;;;;;;10096294;28;20071;-71
2022/09/03 02:36:18;;;;;;;5.80;5.30;;;;;;;;;;10074430;28;20055;-71
2022/09/03 02:41:14;;;;;;;6.15;5.55;;;;;;;;;;10095183;28;20416;-71
2022/09/03 02:46:17;;;;;;;6.50;5.90;;;;;;;;;;10075096;28;20035;-71
2022/09/03 02:51:14;;;;;;;6.28;5.78;;;;;;;;;;10070763;28;20134;-71
2022/09/03 02:56:10;;;;;;;6.30;5.68;;;;;;;;;;10066818;28;20067;-70
2022/09/03 03:01:06;;;;;;;6.22;5.82;;;;;;;;;;10075213;28;20101;-71
2022/09/03 03:06:04;;;;;;;6.00;5.60;;;;;;;;;;10077381;28;20409;-71
2022/09/03 03:11:00;;;;;;;6.10;5.60;;;;;;;;;;10066946;28;20078;-71
2022/09/03 03:16:01;;;;;;;6.88;6.28;;;;;;;;;;10081237;28;20401;-70
2022/09/03 03:21:02;;;;;;;6.75;5.80;;;;;;;;;;10069306;28;20069;-70
2022/09/03 03:26:02;;;;;;;6.07;5.68;;;;;;;;;;10079376;28;20135;-71
2022/09/03 03:31:06;;;;;;;6.60;5.97;;;;;;;;;;10074214;28;20562;-71
2022/09/03 03:36:07;;;;;;;6.43;5.82;;;;;;;;;;10076454;28;20134;-71
2022/09/03 03:41:14;;;;;;;6.28;5.78;;;;;;;;;;10077192;28;20078;-71
2022/09/03 03:46:10;;;;;;;6.60;6.10;;;;;;;;;;10074740;28;20501;-71
2022/09/03 03:51:08;;;;;;;6.13;5.72;;;;;;;;;;10079417;28;20511;-71
2022/09/03 03:56:06;;;;;;;6.32;5.82;;;;;;;;;;10074152;28;20567;-71
2022/09/03 04:01:06;;;;;;;6.70;6.10;;;;;;;;;;10075025;28;20070;-71
2022/09/03 04:06:05;;;;;;;6.78;6.25;;;;;;;;;;10101897;28;20417;-71
2022/09/03 04:11:04;;;;;;;7.10;6.60;;;;;;;;;;10076891;28;20054;-71
2022/09/03 04:16:01;;;;;;;7.00;6.50;;;;;;;;;;10071925;28;20071;-71
2022/09/03 04:21:06;;;;;;;7.32;6.82;;;;;;;;;;10077135;28;20130;-71
2022/09/03 04:26:03;;;;;;;8.30;6.70;;;;;;;;;;10098222;28;20505;-71
2022/09/03 04:31:01;;;;;;;7.30;6.70;;;;;;;;;;10067667;28;20089;-70
2022/09/03 04:36:09;;;;;;;7.20;6.70;;;;;;;;;;10073193;28;20509;-71
2022/09/03 04:41:06;;;;;;;7.45;6.85;;;;;;;;;;10078846;28;20066;-71
2022/09/03 04:46:04;;;;;;;7.28;6.68;;;;;;;;;;10068581;28;20050;-71
2022/09/03 04:51:06;;;;;;;6.75;6.13;;;;;;;;;;10070158;28;20069;-71
2022/09/03 04:56:02;;;;;;;6.90;6.32;;;;;;;;;;10068530;28;20472;-71
2022/09/03 05:01:05;;;;;;;7.60;7.00;;;;;;;;;;10080884;28;20043;-71
2022/09/03 05:06:02;;;;;;;7.00;6.50;;;;;;;;;;10077896;28;20051;-70
2022/09/03 05:10:59;;;;;;;7.93;7.32;;;;;;;;;;10071069;28;20584;-70
2022/09/03 05:16:02;;;;;;;8.13;7.43;;;;;;;;;;10067335;28;20103;-71
2022/09/03 05:21:00;;;;;;;7.72;6.95;;;;;;;;;;10071774;28;20078;-70
2022/09/03 05:25:57;;;;;;;6.32;5.82;;;;;;;;;;10073426;28;20047;-70
2022/09/03 05:31:00;;;;;;;7.10;6.60;;;;;;;;;;10063582;28;20113;-71
2022/09/03 05:36:07;;;;;;;6.60;6.10;;;;;;;;;;10078794;28;20055;-71
2022/09/03 05:41:04;;;;;;;6.40;5.90;;;;;;;;;;10071479;28;20118;-70
2022/09/03 05:46:02;;;;;;;6.93;6.43;;;;;;;;;;10063220;28;20386;-71
2022/09/03 05:51:03;;;;;;;7.10;6.50;;;;;;;;;;10073109;28;20126;-65
2022/09/03 05:56:01;;;;;;;6.80;6.30;;;;;;;;;;10076188;28;20137;-70
2022/09/03 06:00:58;;;;;;;7.22;6.65;;;;;;;;;;10074679;28;20035;-70
2022/09/03 06:05:54;;;;;;;7.38;6.78;;;;;;;;;;10078194;28;20055;-70
2022/09/03 06:10:56;;;;;;;7.05;6.28;;;;;;;;;;10070019;28;20129;-71
2022/09/03 06:15:59;;;;;;;7.45;6.72;;;;;;;;;;10081300;28;20078;-71
2022/09/03 06:20:57;;;;;;;6.78;6.20;;;;;;;;;;10089455;28;20063;-71
2022/09/03 06:26:00;;;;;;;6.72;6.20;;;;;;;;;;10087106;28;20130;-71
2022/09/03 06:31:01;;;;;;;6.53;6.03;;;;;;;;;;10117186;28;20042;-71
2022/09/03 06:35:58;;;;;;;6.80;6.30;;;;;;;;;;10094010;28;20043;-71
2022/09/03 06:40:55;;;;;;;7.57;6.38;;;;;;;;;;10080270;28;20105;-71
2022/09/03 06:46:02;;;;;;;6.50;6.00;;;;;;;;;;10085500;28;20127;-71
2022/09/03 06:51:00;;;;;;;6.80;6.20;;;;;;;;;;10088734;28;20043;-71
2022/09/03 06:56:00;;;;;;;7.85;6.50;;;;;;;;;;10078900;28;20071;-71
2022/09/03 07:01:10;;;;;;;7.10;6.50;;;;;;;;;;10078828;28;20050;-71
2022/09/03 07:06:14;;;;;;;7.68;6.82;;;;;;;;;;10075358;28;20416;-71
2022/09/03 07:11:18;;;;;;;7.72;7.03;;;;;;;;;;10100233;28;20118;-71
2022/09/03 07:16:16;;;;;;;7.28;6.68;;;;;;;;;;10072347;28;20108;-71
2022/09/03 07:21:13;;;;;;;7.32;6.57;;;;;;;;;;10080980;28;20062;-71
2022/09/03 07:26:11;;;;;;;8.00;7.40;;;;;;;;;;10073346;28;20050;-71
2022/09/03 07:31:15;;;;;;;7.43;6.93;;;;;;;;;;10081856;28;20082;-71
2022/09/03 07:36:16;;;;;;;8.50;7.68;;;;;;;;;;10072652;28;20135;-71
2022/09/03 07:41:13;;;;;;;6.82;6.32;;;;;;;;;;10069239;28;20146;-71
2022/09/03 07:46:25;;;;;;;8.25;7.50;;;;;;;;;;10072567;28;20047;-71
2022/09/03 07:51:26;;;;;;;7.20;6.60;;;;;;;;;;10070364;28;20481;-71
2022/09/03 07:56:23;;;;;;;11.23;7.15;;;;;;;;;;10077920;28;20140;-71
2022/09/03 08:01:20;;;;;;;7.65;6.95;;;;;;;;;;10111393;28;20055;-71
2022/09/03 08:06:17;;;;;;;7.20;6.70;;;;;;;;;;10080397;28;20770;-71
2022/09/03 08:11:15;;;;;;;14.75;7.20;;;;;;;;;;10089170;28;20074;-72
2022/09/03 08:16:12;;;;;;;7.68;7.07;;;;;;;;;;10066052;28;20124;-72
2022/09/03 08:21:11;;;;;;;8.25;7.65;;;;;;;;;;10067549;28;20058;-71
2022/09/03 08:26:07;;;;;;;8.20;7.60;;;;;;;;;;10082786;28;20126;-72
2022/09/03 08:31:08;;;;;;;9.30;8.38;;;;;;;;;;10081254;28;20113;-72
2022/09/03 08:36:11;;;;;;;7.63;6.97;;;;;;;;;;10079296;28;20424;-72
2022/09/03 08:41:09;;;;;;;;;;;;;;;;;;10074250;28;20093;-71
2022/09/03 08:46:05;;;;;;;7.60;7.10;;;;;;;;;;10074890;28;19922;-71
2022/09/03 08:51:03;;;;;;;7.45;6.80;;;;;;;;;;10092731;28;20042;-72
2022/09/03 08:56:19;;;;;;;7.85;7.18;;;;;;;;;;10069218;28;20047;-72
2022/09/03 09:01:15;;;;;;;7.05;6.53;;;;;;;;;;10069459;28;20078;-71
2022/09/03 09:06:16;;;;;;;7.32;6.72;;;;;;;;;;10080582;28;20428;-72
2022/09/03 09:11:21;;;;;;;7.03;6.32;;;;;;;;;;10077556;28;20083;-71
2022/09/03 09:16:24;;;;;;;7.10;6.30;;;;;;;;;;10064045;28;20082;-72
2022/09/03 09:21:26;;;;;;;7.43;6.70;;;;;;;;;;10066086;28;20055;-71
2022/09/03 09:26:23;;;;;;;8.98;6.93;;;;;;;;;;10066979;28;20063;-72
2022/09/03 09:31:19;;;;;;;7.60;7.00;;;;;;;;;;10061712;28;20043;-71
2022/09/03 09:36:18;;;;;;;7.40;6.70;;;;;;;;;;10068739;28;20043;-72
2022/09/03 09:41:16;;;;;;;8.85;6.35;;;;;;;;;;10073418;28;20086;-71
2022/09/03 09:46:14;;;;;;;7.05;6.45;;;;;;;;;;10065032;28;20109;-72
2022/09/03 09:51:18;;;;;;;7.10;6.60;;;;;;;;;;10070009;28;20051;-72
2022/09/03 09:56:21;;;;;;;7.05;6.47;;;;;;;;;;10073581;28;20919;-72
2022/09/03 10:01:21;;;;;;;6.53;6.03;;;;;;;;;;10075170;28;20047;-72
2022/09/03 10:11:39;;;;;;;7.57;6.97;;;;;;;;;;10096148;28;20047;-72
2022/09/03 10:16:38;;;;;;;6.70;6.13;;;;;;;;;;10089057;28;21311;-72
2022/09/03 10:21:37;;;;;;;7.10;6.50;;;;;;;;;;10077306;28;20066;-72
2022/09/03 10:26:35;;;;;;;7.45;6.70;;;;;;;;;;10082373;28;20048;-72
2022/09/03 10:31:52;;;;;;;7.00;6.50;;;;;;;;;;10069972;28;20562;-72
2022/09/03 10:37:05;;;;;;;7.15;6.55;;;;;;;;;;10086968;28;20096;-72
2022/09/03 10:42:01;;;;;;;;;;;;;;;;;;10068306;28;20047;-71
2022/09/03 10:46:57;;;;;;;7.13;6.55;;;;;;;;;;10073758;28;19980;-72
2022/09/03 10:52:01;;;;;;;7.30;6.40;;;;;;;;;;10072347;28;20051;-72
2022/09/03 10:57:03;;;;;;;7.28;6.65;;;;;;;;;;10085657;28;20756;-72
2022/09/03 11:02:00;;;;;;;;;;;;;;;;;;10077963;28;20746;-71
2022/09/03 11:07:00;;;;;;;7.40;6.70;;;;;;;;;;10087479;28;19926;-72
2022/09/03 11:11:57;;;;;;;7.88;7.28;;;;;;;;;;10090929;28;20055;-72
2022/09/03 11:16:57;;;;;;;6.97;6.47;;;;;;;;;;10064583;28;20058;-72
2022/09/03 11:21:54;;;;;;;10.18;6.13;;;;;;;;;;10089356;28;20087;-72
2022/09/03 11:26:57;;;;;;;7.00;6.28;;;;;;;;;;10080253;28;20122;-72
2022/09/03 11:32:15;;;;;;;6.78;6.28;;;;;;;;;;10071246;28;20051;-72
2022/09/03 11:37:17;;;;;;;9.45;6.80;;;;;;;;;;10085470;28;20079;-71
2022/09/03 11:42:32;;;;;;;6.72;5.75;;;;;;;;;;10078510;28;20077;-72
2022/09/03 11:47:39;;;;;;;6.90;6.40;;;;;;;;;;10073485;28;20059;-72
2022/09/03 11:52:39;;;;;;;7.50;6.20;;;;;;;;;;10069793;28;20089;-72
2022/09/03 11:57:40;;;;;;;7.22;6.57;;;;;;;;;;10084995;28;20052;-71
2022/09/03 12:02:42;;;;;;;7.17;6.67;;;;;;;;;;10065954;28;20078;-71
2022/09/03 12:07:54;;;;;;;7.80;7.10;;;;;;;;;;10074805;28;20046;-72
2022/09/03 12:12:53;;;;;;;6.87;6.27;;;;;;;;;;10072104;28;20295;-71
2022/09/03 12:23:10;;;;;;;10.25;7.25;;;;;;;;;;10068688;28;20097;-72
2022/09/03 12:28:11;;;;;;;7.07;6.50;;;;;;;;;;10103380;28;20077;-72
2022/09/03 12:33:09;;;;;;;6.90;6.30;;;;;;;;;;10091568;28;20071;-72
2022/09/03 12:38:06;;;;;;;7.63;6.88;;;;;;;;;;10085003;28;20066;-72
2022/09/03 12:43:12;;;;;;;9.05;6.90;;;;;;;;;;10067008;28;20046;-72
2022/09/03 12:48:29;;;;;;;9.57;6.82;;;;;;;;;;10078848;28;20043;-72
2022/09/03 12:53:29;;;;;;;6.28;5.78;;;;;;;;;;10084837;28;20039;-72
2022/09/03 12:58:32;;;;;;;7.90;6.20;;;;;;;;;;10065864;28;20043;-72
2022/09/03 13:03:31;;;;;;;6.57;6.07;;;;;;;;;;10070746;28;20047;-72
2022/09/03 13:08:29;;;;;;;7.05;6.40;;;;;;;;;;10064687;28;20138;-72
2022/09/03 13:13:27;;;;;;;6.82;6.15;;;;;;;;;;10066566;28;20075;-72
2022/09/03 13:18:46;;;;;;;6.47;5.97;;;;;;;;;;10070074;28;20386;-72
2022/09/03 13:23:52;;;;;;;7.40;6.80;;;;;;;;;;10075296;28;20138;-72
2022/09/03 13:28:48;;;;;;;7.20;6.60;;;;;;;;;;10065348;28;20138;-72
2022/09/03 13:33:48;;;;;;;11.05;6.50;;;;;;;;;;10065986;28;20137;-72
2022/09/03 13:38:44;;;;;;;7.00;6.50;;;;;;;;;;10074157;28;20058;-72
2022/09/03 13:43:57;;;;;;;7.05;6.35;;;;;;;;;;10077779;28;20043;-72
2022/09/03 13:54:42;;;;;;;7.10;6.50;;;;;;;;;;10080078;28;20137;-73
2022/09/03 14:00:12;;;;;;;8.82;6.60;;;;;;;;;;10067179;28;20040;-72
2022/09/03 14:05:12;;;;;;;7.07;6.57;;;;;;;;;;10086877;28;20059;-72
2022/09/03 14:10:38;;;;;;;6.90;6.40;;;;;;;;;;10073158;28;20492;-72
2022/09/03 14:15:42;;;;;;;8.13;7.30;;;;;;;;;;10111383;28;20105;-72
2022/09/03 14:20:45;;;;;;;7.65;7.00;;;;;;;;;;10082371;28;20073;-72
2022/09/03 14:25:50;;;;;;;7.72;7.03;;;;;;;;;;10091006;28;20126;-72
2022/09/03 14:30:56;;;;;;;8.07;7.38;;;;;;;;;;10084367;28;20043;-72
2022/09/03 14:36:11;;;;;;;7.95;7.35;;;;;;;;;;10085041;28;20067;-72
2022/09/03 14:41:13;;;;;;;7.63;7.00;;;;;;;;;;10085381;28;20134;-72
2022/09/03 14:46:26;;;;;;;8.02;7.30;;;;;;;;;;10089155;28;20126;-72
2022/09/03 14:51:35;;;;;;;8.77;7.95;;;;;;;;;;10076174;28;20063;-72
2022/09/03 14:56:47;;;;;;;8.45;7.60;;;;;;;;;;10073879;28;20047;-72
2022/09/03 15:01:46;;;;;;;8.00;7.30;;;;;;;;;;10084394;28;20089;-72
2022/09/03 15:06:46;;;;;;;7.95;7.10;;;;;;;;;;10081130;28;20130;-72
2022/09/03 15:11:46;;;;;;;7.97;7.35;;;;;;;;;;10107807;28;20609;-72
2022/09/03 15:16:52;;;;;;;8.00;7.20;;;;;;;;;;10071978;28;20083;-72
2022/09/03 15:22:08;;;;;;;7.65;7.07;;;;;;;;;;10072981;28;20051;-72
2022/09/03 15:27:10;;;;;;;7.60;7.00;;;;;;;;;;10071918;28;20672;-72
2022/09/03 15:32:06;;;;;;;;;;;;;;;;;;10097431;28;20134;-72
2022/09/03 15:37:09;;;;;;;8.57;7.63;;;;;;;;;;10080708;28;20307;-71
2022/09/03 15:42:09;;;;;;;7.72;7.18;;;;;;;;;;10076995;28;20135;-72
2022/09/03 15:47:07;;;;;;;7.60;7.00;;;;;;;;;;10068306;28;20049;-72
2022/09/03 15:52:26;;;;;;;7.88;7.35;;;;;;;;;;10079071;28;20656;-71
2022/09/03 15:57:28;;;;;;;8.00;7.30;;;;;;;;;;10079128;28;20127;-71
2022/09/03 16:02:32;;;;;;;7.65;7.15;;;;;;;;;;10072929;28;20143;-71
2022/09/03 16:07:34;;;;;;;8.45;7.85;;;;;;;;;;10088722;28;20051;-71
2022/09/03 16:12:34;;;;;;;7.40;6.88;;;;;;;;;;10062980;28;20081;-72
2022/09/03 16:17:35;;;;;;;8.23;7.57;;;;;;;;;;10084306;28;20077;-71
2022/09/03 16:22:37;;;;;;;8.00;7.30;;;;;;;;;;10106960;28;20124;-72
2022/09/03 16:27:37;;;;;;;7.85;7.03;;;;;;;;;;10068544;28;20138;-71
2022/09/03 16:32:52;;;;;;;7.53;6.68;;;;;;;;;;10092299;28;20146;-71
2022/09/03 16:37:51;;;;;;;8.23;7.10;;;;;;;;;;10065666;28;20189;-72
2022/09/03 16:43:06;;;;;;;7.30;6.80;;;;;;;;;;10081875;28;20075;-71
2022/09/03 16:48:37;;;;;;;7.88;7.18;;;;;;;;;;10076920;28;20050;-72
2022/09/03 16:53:49;;;;;;;7.32;6.75;;;;;;;;;;10092546;28;20484;-72
2022/09/03 16:58:52;;;;;;;8.27;7.63;;;;;;;;;;10069596;28;20039;-72
2022/09/03 17:03:48;;;;;;;7.38;6.85;;;;;;;;;;10068477;28;20085;-72
2022/09/03 17:08:58;;;;;;;7.50;6.78;;;;;;;;;;10072000;28;20055;-71
2022/09/03 17:14:06;;;;;;;8.52;6.45;;;;;;;;;;10065670;28;20130;-71
2022/09/03 17:19:04;;;;;;;7.47;6.70;;;;;;;;;;10066701;28;20046;-72
2022/09/03 17:24:03;;;;;;;7.47;6.78;;;;;;;;;;10078426;28;20558;-72
2022/09/03 17:29:19;;;;;;;7.30;6.70;;;;;;;;;;10074843;28;20039;-71
2022/09/03 17:34:29;;;;;;;7.10;6.40;;;;;;;;;;10083841;28;20047;-72
2022/09/03 17:39:38;;;;;;;7.47;6.97;;;;;;;;;;10074280;28;20097;-71
2022/09/03 17:44:34;;;;;;;7.25;6.75;;;;;;;;;;10091078;28;20055;-71
2022/09/03 17:49:43;;;;;;;7.82;7.22;;;;;;;;;;10105968;28;20629;-71
2022/09/03 17:54:40;;;;;;;7.00;6.50;;;;;;;;;;10068755;28;20063;-71
2022/09/03 17:59:44;;;;;;;6.72;6.13;;;;;;;;;;10108256;28;20139;-72
2022/09/03 18:04:47;;;;;;;6.30;5.80;;;;;;;;;;10062091;28;20048;-71
2022/09/03 18:10:02;;;;;;;6.85;6.25;;;;;;;;;;10125107;28;20133;-71
2022/09/03 18:15:03;;;;;;;6.97;6.40;;;;;;;;;;10076266;28;20079;-71
2022/09/03 20:12:41;;;;;;;6.68;6.18;;;;;;;;;;10076603;28;20120;-72
2022/09/03 20:17:56;;;;;;;6.43;5.93;;;;;;;;;;10071958;28;20921;-71
2022/09/03 20:23:11;;;;;;;6.57;6.07;;;;;;;;;;10090734;28;20086;-71
2022/09/03 20:28:10;;;;;;;6.25;5.75;;;;;;;;;;10067781;28;20555;-71
2022/09/03 20:33:25;;;;;;;6.88;6.28;;;;;;;;;;10074453;28;20043;-71
2022/09/03 20:38:25;;;;;;;6.15;5.65;;;;;;;;;;10081090;28;20561;-71
2022/09/03 20:43:24;;;;;;;6.13;5.53;;;;;;;;;;10080461;28;20047;-71
2022/09/03 20:48:22;;;;;;;6.50;5.90;;;;;;;;;;10068812;28;20047;-71
2022/09/03 20:53:38;;;;;;;6.32;5.82;;;;;;;;;;10074680;28;20066;-71
2022/09/03 20:58:41;;;;;;;6.20;5.70;;;;;;;;;;10077684;28;20094;-71
2022/09/03 21:03:55;;;;;;;5.82;5.30;;;;;;;;;;10081236;28;20085;-71
2022/09/03 21:08:59;;;;;;;5.65;5.25;;;;;;;;;;10109367;28;20055;-71
2022/09/03 21:13:58;;;;;;;5.38;4.97;;;;;;;;;;10063089;28;20081;-72
2022/09/03 21:18:58;;;;;;;5.28;4.88;;;;;;;;;;10068231;28;20059;-71
2022/09/03 21:24:01;;;;;;;5.85;5.15;;;;;;;;;;10075817;28;20524;-71
2022/09/03 21:29:03;;;;;;;5.45;4.95;;;;;;;;;;10073631;28;20047;-71
2022/09/03 21:34:06;;;;;;;5.65;5.25;;;;;;;;;;10074081;28;20423;-71
2022/09/03 21:39:13;;;;;;;5.93;5.38;;;;;;;;;;10068903;28;20071;-72
2022/09/03 21:44:17;;;;;;;5.75;5.25;;;;;;;;;;10066011;28;20174;-72
2022/09/03 21:49:16;;;;;;;5.55;5.15;;;;;;;;;;10064471;28;20703;-71
2022/09/03 21:54:22;;;;;;;5.53;5.13;;;;;;;;;;10073563;28;20101;-71
2022/09/03 21:59:21;;;;;;;6.03;5.43;;;;;;;;;;10066937;28;20583;-71
2022/09/03 22:04:17;;;;;;;5.80;5.40;;;;;;;;;;10082278;28;20502;-71
2022/09/03 22:09:27;;;;;;;5.70;5.20;;;;;;;;;;10070796;28;20552;-72
2022/09/03 22:14:26;;;;;;;6.63;6.03;;;;;;;;;;10087992;28;20523;-71
2022/09/03 22:19:23;;;;;;;5.90;5.30;;;;;;;;;;10062245;28;20150;-71
2022/09/03 22:24:24;;;;;;;6.32;5.72;;;;;;;;;;10069726;28;20083;-71
2022/09/03 22:29:29;;;;;;;5.88;5.32;;;;;;;;;;10058743;28;20115;-71
2022/09/03 22:34:39;;;;;;;6.10;5.50;;;;;;;;;;10066367;28;20585;-71
2022/09/03 22:39:36;;;;;;;5.93;5.43;;;;;;;;;;10069281;28;20425;-71
2022/09/03 22:44:47;;;;;;;9.77;6.50;;;;;;;;;;10083987;28;20079;-71
2022/09/03 22:49:50;;;;;;;5.78;5.38;;;;;;;;;;10072297;28;20043;-71
2022/09/03 22:55:05;;;;;;;5.90;5.40;;;;;;;;;;10087776;28;20073;-71
2022/09/03 23:00:04;;;;;;;6.25;5.60;;;;;;;;;;10082711;28;20113;-71
2022/09/03 23:05:20;;;;;;;5.93;5.43;;;;;;;;;;10072117;28;20570;-71
2022/09/03 23:10:23;;;;;;;6.18;5.68;;;;;;;;;;10083547;28;20037;-72
2022/09/03 23:15:22;;;;;;;6.45;5.70;;;;;;;;;;10114349;28;20050;-72
2022/09/03 23:20:23;;;;;;;6.47;5.82;;;;;;;;;;10074110;28;20146;-71
2022/09/03 23:25:21;;;;;;;6.40;5.78;;;;;;;;;;10076277;28;20090;-71
2022/09/03 23:30:17;;;;;;;5.78;5.28;;;;;;;;;;10085674;28;20047;-71
2022/09/03 23:35:16;;;;;;;6.75;6.15;;;;;;;;;;10088350;28;20138;-71
2022/09/03 23:40:31;;;;;;;8.10;5.93;;;;;;;;;;10077801;28;20052;-72
2022/09/03 23:45:28;;;;;;;6.10;5.53;;;;;;;;;;10068656;28;20118;-72
2022/09/03 23:50:27;;;;;;;5.70;5.20;;;;;;;;;;10080032;28;20081;-72
2022/09/03 23:55:35;;;;;;;6.47;5.88;;;;;;;;;;10090500;28;20158;-72
